createdAt,value
2019-04-03T00:01:57.389Z,9.80
2019-04-03T00:08:01.211Z,9.70
2019-04-03T00:14:22.338Z,9.70
2019-04-03T00:20:25.201Z,9.60
2019-04-03T00:26:30.311Z,9.50
2019-04-03T00:32:33.096Z,9.30
2019-04-03T00:38:36.763Z,9.30
2019-04-03T00:44:46.843Z,9.20
2019-04-03T00:50:50.861Z,9.10
2019-04-03T01:03:11.985Z,9.00
2019-04-03T01:09:17.252Z,8.90
2019-04-03T01:15:23.706Z,8.70
2019-04-03T01:21:42.766Z,8.60
2019-04-03T01:27:59.409Z,8.50
2019-04-03T01:34:01.860Z,8.40
2019-04-03T01:40:30.266Z,8.30
2019-04-03T01:46:43.004Z,8.20
2019-04-03T01:52:46.477Z,8.20
2019-04-03T01:58:53.283Z,8.20
2019-04-03T02:04:58.904Z,8.30
2019-04-03T02:11:09.254Z,8.30
2019-04-03T02:17:23.145Z,8.10
2019-04-03T02:23:22.502Z,8.00
2019-04-03T02:29:30.685Z,7.70
2019-04-03T02:35:34.235Z,7.60
2019-04-03T02:41:37.867Z,7.50
2019-04-03T02:47:42.197Z,7.40
2019-04-03T02:53:45.000Z,7.40
2019-04-03T02:59:48.007Z,7.30
2019-04-03T03:05:50.549Z,7.30
2019-04-03T03:11:57.084Z,7.20
2019-04-03T03:17:59.777Z,7.10
2019-04-03T03:24:02.288Z,6.90
2019-04-03T03:30:28.944Z,6.90
2019-04-03T03:36:09.951Z,6.80
2019-04-03T03:42:14.556Z,6.70
2019-04-03T03:48:17.568Z,6.70
2019-04-03T03:54:20.509Z,6.60
2019-04-03T04:00:24.374Z,6.60
2019-04-03T04:06:29.387Z,6.50
2019-04-03T04:12:33.371Z,6.40
2019-04-03T04:18:37.003Z,6.40
2019-04-03T04:24:39.554Z,6.40
2019-04-03T04:30:46.662Z,6.40
2019-04-03T04:36:49.023Z,6.40
2019-04-03T04:42:51.268Z,6.30
2019-04-03T04:48:56.044Z,6.30
2019-04-03T04:55:01.357Z,6.40
2019-04-03T05:01:02.888Z,6.70
2019-04-03T05:07:05.433Z,7.00
2019-04-03T05:13:08.692Z,7.10
2019-04-03T05:19:17.603Z,7.10
2019-04-03T05:25:23.142Z,7.30
2019-04-03T05:31:25.799Z,7.40
2019-04-03T05:37:30.222Z,7.80
2019-04-03T05:43:36.005Z,7.90
2019-04-03T05:49:59.513Z,8.00
2019-04-03T05:56:11.623Z,8.30
2019-04-03T06:02:16.601Z,8.90
2019-04-03T06:08:17.867Z,10.00
2019-04-03T06:14:23.613Z,10.20
2019-04-03T06:20:25.990Z,10.90
2019-04-03T06:26:28.543Z,11.90
2019-04-03T06:32:54.481Z,12.70
2019-04-03T06:39:06.486Z,13.50
2019-04-03T06:45:16.318Z,14.00
2019-04-03T06:51:20.517Z,14.30
2019-04-03T06:57:23.340Z,14.70
2019-04-03T07:03:26.970Z,15.70
2019-04-03T07:09:35.644Z,16.60
2019-04-03T07:15:43.820Z,17.50
2019-04-03T07:21:49.082Z,18.80
2019-04-03T07:27:56.783Z,19.00
2019-04-03T07:33:58.185Z,18.10
2019-04-03T07:40:00.119Z,17.40
2019-04-03T07:46:14.878Z,18.00
2019-04-03T07:52:28.831Z,19.30
2019-04-03T07:58:33.295Z,20.70
2019-04-03T08:04:36.892Z,22.20
2019-04-03T08:10:38.904Z,22.40
2019-04-03T08:16:43.281Z,22.30
2019-04-03T08:22:52.740Z,22.10
2019-04-03T08:28:56.357Z,20.70
2019-04-03T08:35:03.842Z,21.40
2019-04-03T08:41:24.904Z,21.00
2019-04-03T08:47:29.876Z,20.60
2019-04-03T08:53:34.814Z,20.80
2019-04-03T08:59:53.340Z,20.70
2019-04-03T09:06:22.277Z,20.50
2019-04-03T09:12:26.459Z,20.20
2019-04-03T09:18:30.495Z,20.20
2019-04-03T09:24:34.504Z,20.00
2019-04-03T09:43:23.064Z,20.80
2019-04-03T09:49:43.808Z,21.70
2019-04-03T10:02:05.582Z,21.00
2019-04-03T10:08:09.753Z,20.40
2019-04-03T10:14:11.848Z,20.20
2019-04-03T10:20:21.016Z,19.90
2019-04-03T10:26:40.854Z,20.10
2019-04-03T10:32:57.274Z,20.00
2019-04-03T10:39:13.416Z,20.10
2019-04-03T10:45:15.672Z,20.50
2019-04-03T10:51:24.108Z,20.70
2019-04-03T10:57:28.162Z,20.80
2019-04-03T11:03:30.110Z,20.90
2019-04-03T11:09:34.731Z,20.60
2019-04-03T11:15:41.958Z,20.40
2019-04-03T11:21:47.327Z,20.70
2019-04-03T11:27:56.643Z,20.80
2019-04-03T11:33:59.236Z,20.70
2019-04-03T11:40:24.188Z,20.90
2019-04-03T11:46:28.354Z,21.20
2019-04-03T11:52:43.268Z,21.30
2019-04-03T11:58:51.331Z,21.10
2019-04-03T12:11:28.420Z,21.20
2019-04-03T12:17:43.629Z,21.20
2019-04-03T12:23:39.987Z,21.20
2019-04-03T12:29:43.769Z,21.20
2019-04-03T12:35:55.661Z,21.10
2019-04-03T12:41:59.522Z,21.10
2019-04-03T12:48:07.954Z,21.20
2019-04-03T13:00:58.354Z,21.40
2019-04-03T13:07:08.830Z,21.50
2019-04-03T13:13:11.338Z,21.30
2019-04-03T13:19:16.202Z,21.00
2019-04-03T13:25:21.654Z,21.00
2019-04-03T13:31:25.210Z,20.80
2019-04-03T13:37:31.125Z,20.70
2019-04-03T13:43:33.838Z,21.10
2019-04-03T13:49:43.352Z,21.50
2019-04-03T13:55:46.699Z,21.50
2019-04-03T14:01:49.816Z,21.50
2019-04-03T14:08:01.383Z,21.50
2019-04-03T14:14:10.027Z,21.50
2019-04-03T14:20:23.724Z,21.30
2019-04-03T14:26:30.774Z,21.50
2019-04-03T14:32:38.734Z,21.50
2019-04-03T14:38:49.143Z,21.60
2019-04-03T14:44:54.649Z,21.40
2019-04-03T14:50:58.925Z,20.80
2019-04-03T14:57:12.744Z,20.30
2019-04-03T15:03:08.327Z,20.30
2019-04-03T15:09:16.652Z,20.60
2019-04-03T15:15:21.694Z,20.80
2019-04-03T15:21:28.727Z,20.90
2019-04-03T15:27:35.892Z,21.00
2019-04-03T15:33:41.260Z,20.90
2019-04-03T15:39:43.722Z,20.90
2019-04-03T15:45:47.597Z,20.90
2019-04-03T15:51:50.434Z,20.90
2019-04-03T15:58:11.680Z,20.80
2019-04-03T16:04:19.412Z,20.60
2019-04-03T16:10:38.469Z,20.50
2019-04-03T16:16:42.740Z,20.30
2019-04-03T16:22:46.463Z,20.30
2019-04-03T16:28:48.954Z,20.20
2019-04-03T16:34:53.567Z,20.00
2019-04-03T16:40:55.846Z,19.70
2019-04-03T16:47:01.093Z,19.50
2019-04-03T16:53:05.687Z,19.20
2019-04-03T16:59:10.482Z,18.90
2019-04-03T17:05:13.039Z,18.60
2019-04-03T17:11:17.085Z,18.40
2019-04-03T17:17:20.747Z,18.20
2019-04-03T17:23:25.609Z,18.00
2019-04-03T17:29:32.536Z,17.80
2019-04-03T17:42:03.122Z,17.40
2019-04-03T17:48:10.062Z,17.20
2019-04-03T17:54:19.392Z,17.00
2019-04-03T18:00:34.784Z,16.80
2019-04-03T18:06:43.105Z,16.60
2019-04-03T18:19:37.010Z,16.20
2019-04-03T18:25:42.283Z,16.10
2019-04-03T18:31:44.298Z,16.00
2019-04-03T18:37:56.440Z,15.80
2019-04-03T18:44:02.691Z,15.60
2019-04-03T18:50:12.449Z,15.50
2019-04-03T18:56:15.625Z,15.40
2019-04-03T19:02:22.041Z,15.20
2019-04-03T19:08:28.574Z,15.10
2019-04-03T19:14:48.847Z,15.00
2019-04-03T19:20:54.627Z,14.90
2019-04-03T19:26:58.474Z,14.80
2019-04-03T19:33:20.205Z,14.70
2019-04-03T19:39:22.236Z,14.60
2019-04-03T19:45:24.540Z,14.50
2019-04-03T19:51:28.915Z,14.30
2019-04-03T19:57:31.072Z,14.20
2019-04-03T20:03:35.017Z,14.10
2019-04-03T20:09:39.637Z,14.00
2019-04-03T20:15:44.376Z,13.90
2019-04-03T20:21:46.490Z,13.80
2019-04-03T20:27:51.432Z,13.40
2019-04-03T20:34:01.967Z,13.10
2019-04-03T20:40:06.360Z,12.90
2019-04-03T20:46:08.083Z,12.60
2019-04-03T20:52:11.789Z,12.20
2019-04-03T20:58:13.941Z,11.90
2019-04-03T21:04:19.221Z,11.60
2019-04-03T21:10:25.113Z,11.30
2019-04-03T21:16:33.070Z,11.00
2019-04-03T21:22:33.984Z,10.90
2019-04-03T21:28:36.493Z,10.70
2019-04-03T21:34:38.483Z,10.50
2019-04-03T21:40:40.373Z,10.30
2019-04-03T21:46:46.908Z,10.10
2019-04-03T21:52:53.455Z,10.00
2019-04-03T21:58:56.752Z,9.80
2019-04-03T22:05:02.008Z,9.70
2019-04-03T22:11:07.063Z,9.60
2019-04-03T22:17:23.410Z,9.40
2019-04-03T22:23:40.407Z,9.30
2019-04-03T22:30:11.103Z,9.20
2019-04-03T22:36:14.618Z,9.10
2019-04-03T22:42:36.749Z,9.00
2019-04-03T22:48:47.765Z,9.00
2019-04-03T22:54:50.206Z,8.90
2019-04-03T23:00:58.882Z,8.90
2019-04-03T23:06:59.502Z,8.80
2019-04-03T23:13:08.625Z,8.80
2019-04-03T23:19:11.107Z,8.80
2019-04-03T23:25:16.285Z,8.70
2019-04-03T23:31:22.580Z,8.70
2019-04-03T23:37:24.768Z,8.60
2019-04-03T23:43:29.415Z,8.50
2019-04-03T23:49:32.468Z,8.30
2019-04-03T23:55:36.299Z,8.30
